Tropical Cyclones
[Index]
Main Index Home Page Stock Weather Photos Extreme Storms Discussion Storm News and Storm Chasing Reports Tropical Cyclones / Hurricanes / Typhoons Weather Data and Links Wild Fires / Bushfires Weather Observation Techniques Weather Picture Catalogue Tornado Pictures and Reports Stock Video Footage and DVDs for sale
Season 2019-2020 Tropical Cyclone FERDINAND Track Map
Season 2019-2020 Summaries: [BoM-AU]
<<- Previous TC | BoM 2019-2020 Season | Next TC ->>

click for intensity scale information  Lat/long Grid: Show Hide

 Date Labels: Show Hide

Bureau of Meteorology Tropical Cyclone Data

Name: FERDINAND

22 Feb 2020 00:00 UTC to 01 Mar 2020 12:00 UTC

    date/time    lat    long    hPa   cat  kts
2020-02-22 00   12.0   119.0   1004         20          
2020-02-22 06   12.1   119.2   1004         20          
2020-02-22 12   12.3   119.2   1002         20          
2020-02-23 00   12.4   119.2   1002         25          
2020-02-23 06   12.5   119.1   1002         25          
2020-02-23 12   13.0   118.7   1000         25          
2020-02-23 18   13.3   118.4    998         35          
2020-02-24 00   13.8   118.1    995    1    40          
2020-02-24 06   14.2   117.8    995    1    40          
2020-02-24 12   14.6   117.4    992    1    45          
2020-02-24 18   15.0   117.4    992    1    45          
2020-02-25 00   15.3   117.1    976    2    65          
2020-02-25 06   15.5   116.6    968    3    75          
2020-02-25 12   15.8   116.5    960    3    85          
2020-02-25 18   15.9   115.9    960    3    85          
2020-02-26 00   16.0   115.5    960    3    85          
2020-02-26 06   16.0   115.1    960    3    85          
2020-02-26 12   16.2   114.8    960    3    85          
2020-02-26 18   16.4   114.7    960    3    80          
2020-02-27 00   16.6   114.5    972    2    70          
2020-02-27 06   16.6   114.3    984    2    55          
2020-02-27 12   16.6   114.1    988    1    50          
2020-02-27 18   16.6   113.7    989    1    50          
2020-02-28 00   16.5   113.2    992    1    45          
2020-02-28 06   16.4   113.0    991    1    45          
2020-02-28 12   16.3   112.7    988    1    50          
2020-02-28 18   16.2   112.3    991    1    45          
2020-02-29 00   16.0   111.7    990    1    40          
2020-02-29 06   15.6   111.3    995    1    40          
2020-02-29 12   15.6   111.2    998         30          
2020-02-29 18   15.5   111.1    999         30          
2020-03-01 00   15.5   111.0   1000         30          
2020-03-01 06   15.3   110.8   1001         25          
2020-03-01 12   15.0   110.5   1002         20          
Winds are 10-min average.

Tropical cyclone tracks developed by Michael Bath using data from the Bureau of Meteorology and Google Maps.


[Australian Severe Weather index] [Copyright Notice] [Email Contacts] [Search This Site] [Privacy Policy]
Document: tropical_cyclone_ferdinand.htm Updated: 11 May 2020